sensor_id;sensor_type;location;lat;lon;timestamp;pressure;altitude;pressure_sealevel;temperature;humidity
13011;BME280;6786;57.632;11.962;2022-10-16T00:01:38;99639.06;;;20.81;56.95
13011;BME280;6786;57.632;11.962;2022-10-16T00:04:07;99672.09;;;20.97;57.01
13011;BME280;6786;57.632;11.962;2022-10-16T00:06:36;99673.78;;;20.98;56.79
13011;BME280;6786;57.632;11.962;2022-10-16T00:09:04;99670.91;;;21.00;57.09
13011;BME280;6786;57.632;11.962;2022-10-16T00:11:36;99646.94;;;20.82;56.91
13011;BME280;6786;57.632;11.962;2022-10-16T00:14:09;99670.09;;;20.99;56.99
13011;BME280;6786;57.632;11.962;2022-10-16T00:16:38;99672.09;;;20.97;57.03
13011;BME280;6786;57.632;11.962;2022-10-16T00:19:06;99674.63;;;20.99;57.02
13011;BME280;6786;57.632;11.962;2022-10-16T00:21:34;99691.59;;;20.99;56.78
13011;BME280;6786;57.632;11.962;2022-10-16T00:24:04;99690.56;;;21.00;57.06
13011;BME280;6786;57.632;11.962;2022-10-16T00:26:35;99656.34;;;20.78;56.84
13011;BME280;6786;57.632;11.962;2022-10-16T00:29:04;99687.03;;;21.00;56.89
13011;BME280;6786;57.632;11.962;2022-10-16T00:31:32;99699.66;;;20.99;56.73
13011;BME280;6786;57.632;11.962;2022-10-16T00:34:01;99699.66;;;20.99;56.58
13011;BME280;6786;57.632;11.962;2022-10-16T00:36:29;99700.63;;;20.98;56.57
13011;BME280;6786;57.632;11.962;2022-10-16T00:38:58;99669.97;;;20.77;57.02
13011;BME280;6786;57.632;11.962;2022-10-16T00:41:29;99669.28;;;20.83;56.81
13011;BME280;6786;57.632;11.962;2022-10-16T00:44:00;99706.00;;;20.98;56.94
13011;BME280;6786;57.632;11.962;2022-10-16T00:46:33;99682.03;;;20.81;56.81
13011;BME280;6786;57.632;11.962;2022-10-16T00:49:06;99636.94;;;20.60;57.13
13011;BME280;6786;57.632;11.962;2022-10-16T00:51:39;99704.34;;;20.97;56.98
13011;BME280;6786;57.632;11.962;2022-10-16T00:54:09;99702.13;;;20.93;56.74
13011;BME280;6786;57.632;11.962;2022-10-16T00:56:38;99713.41;;;20.96;56.79
13011;BME280;6786;57.632;11.962;2022-10-16T00:59:16;99710.91;;;20.95;56.69
13011;BME280;6786;57.632;11.962;2022-10-16T01:01:45;99724.97;;;20.97;56.94
13011;BME280;6786;57.632;11.962;2022-10-16T01:04:14;99713.41;;;20.96;56.90
13011;BME280;6786;57.632;11.962;2022-10-16T01:06:47;99724.16;;;20.96;57.00
13011;BME280;6786;57.632;11.962;2022-10-16T01:09:21;99724.16;;;20.96;56.79
13011;BME280;6786;57.632;11.962;2022-10-16T01:11:58;99735.72;;;20.97;57.08
13011;BME280;6786;57.632;11.962;2022-10-16T01:14:34;99736.56;;;20.97;56.95
13011;BME280;6786;57.632;11.962;2022-10-16T01:17:11;99734.91;;;20.96;56.67
13011;BME280;6786;57.632;11.962;2022-10-16T01:22:44;99740.28;;;20.96;56.76
13011;BME280;6786;57.632;11.962;2022-10-16T01:25:20;99728.69;;;20.96;56.87
13011;BME280;6786;57.632;11.962;2022-10-16T01:27:54;99724.16;;;20.96;56.84
13011;BME280;6786;57.632;11.962;2022-10-16T01:30:25;99737.44;;;20.98;56.57
13011;BME280;6786;57.632;11.962;2022-10-16T01:32:56;99739.25;;;20.97;56.85
13011;BME280;6786;57.632;11.962;2022-10-16T01:35:29;99704.69;;;20.78;56.86
13011;BME280;6786;57.632;11.962;2022-10-16T01:38:02;99714.75;;;20.84;56.76
13011;BME280;6786;57.632;11.962;2022-10-16T01:40:33;99738.25;;;20.98;56.75
13011;BME280;6786;57.632;11.962;2022-10-16T01:43:06;99741.09;;;20.97;56.48
13011;BME280;6786;57.632;11.962;2022-10-16T01:45:36;99733.91;;;20.97;56.66
13011;BME280;6786;57.632;11.962;2022-10-16T01:48:05;99741.94;;;20.97;56.77
13011;BME280;6786;57.632;11.962;2022-10-16T01:50:38;99736.56;;;20.97;56.60
13011;BME280;6786;57.632;11.962;2022-10-16T01:53:10;99736.56;;;20.97;56.79
13011;BME280;6786;57.632;11.962;2022-10-16T01:55:43;99735.72;;;20.97;56.84
13011;BME280;6786;57.632;11.962;2022-10-16T01:58:14;99736.56;;;20.97;56.55
13011;BME280;6786;57.632;11.962;2022-10-16T02:00:44;99740.94;;;20.98;56.61
13011;BME280;6786;57.632;11.962;2022-10-16T02:03:16;99735.72;;;20.97;56.50
13011;BME280;6786;57.632;11.962;2022-10-16T02:05:47;99701.69;;;20.73;56.67
13011;BME280;6786;57.632;11.962;2022-10-16T02:08:18;99726.66;;;20.82;56.59
13011;BME280;6786;57.632;11.962;2022-10-16T02:10:47;99756.41;;;20.96;56.53
13011;BME280;6786;57.632;11.962;2022-10-16T02:13:18;99758.91;;;20.98;56.74
13011;BME280;6786;57.632;11.962;2022-10-16T02:15:49;99745.97;;;20.93;56.70
13011;BME280;6786;57.632;11.962;2022-10-16T02:18:17;99755.38;;;20.97;56.78
13011;BME280;6786;57.632;11.962;2022-10-16T02:20:50;99760.06;;;20.95;56.44
13011;BME280;6786;57.632;11.962;2022-10-16T02:23:24;99752.31;;;20.92;56.71
13011;BME280;6786;57.632;11.962;2022-10-16T02:25:57;99747.31;;;20.97;56.70
13011;BME280;6786;57.632;11.962;2022-10-16T02:28:33;99763.44;;;20.97;56.72
13011;BME280;6786;57.632;11.962;2022-10-16T02:31:07;99761.78;;;20.96;56.42
13011;BME280;6786;57.632;11.962;2022-10-16T02:33:38;99774.19;;;20.97;56.58
13011;BME280;6786;57.632;11.962;2022-10-16T02:36:08;99756.41;;;20.96;56.65
13011;BME280;6786;57.632;11.962;2022-10-16T02:38:37;99743.63;;;20.82;56.57
13011;BME280;6786;57.632;11.962;2022-10-16T02:41:07;99768.81;;;20.97;56.49
13011;BME280;6786;57.632;11.962;2022-10-16T02:43:36;99771.50;;;20.97;56.45
13011;BME280;6786;57.632;11.962;2022-10-16T02:46:05;99771.66;;;20.96;56.67
13011;BME280;6786;57.632;11.962;2022-10-16T02:48:33;99740.59;;;20.77;56.42
13011;BME280;6786;57.632;11.962;2022-10-16T02:51:02;99771.31;;;20.99;56.51
13011;BME280;6786;57.632;11.962;2022-10-16T02:53:30;99763.44;;;20.97;56.38
13011;BME280;6786;57.632;11.962;2022-10-16T02:55:58;99758.75;;;20.99;56.64
13011;BME280;6786;57.632;11.962;2022-10-16T02:58:27;99675.38;;;20.45;56.27
13011;BME280;6786;57.632;11.962;2022-10-16T03:00:56;99772.34;;;20.98;56.39
13011;BME280;6786;57.632;11.962;2022-10-16T03:03:24;99760.75;;;20.97;56.28
13011;BME280;6786;57.632;11.962;2022-10-16T03:05:52;99758.06;;;20.97;56.38
13011;BME280;6786;57.632;11.962;2022-10-16T03:08:21;99762.59;;;20.97;56.66
13011;BME280;6786;57.632;11.962;2022-10-16T03:10:52;99767.16;;;20.96;56.74
13011;BME280;6786;57.632;11.962;2022-10-16T03:13:20;99767.16;;;20.96;56.53
13011;BME280;6786;57.632;11.962;2022-10-16T03:15:48;99768.81;;;20.97;56.41
13011;BME280;6786;57.632;11.962;2022-10-16T03:18:17;99761.44;;;20.99;56.44
13011;BME280;6786;57.632;11.962;2022-10-16T03:20:46;99758.06;;;20.97;56.40
13011;BME280;6786;57.632;11.962;2022-10-16T03:23:14;99754.34;;;20.98;56.58
13011;BME280;6786;57.632;11.962;2022-10-16T03:25:42;99766.13;;;20.97;56.66
13011;BME280;6786;57.632;11.962;2022-10-16T03:28:13;99759.09;;;20.96;56.45
13011;BME280;6786;57.632;11.962;2022-10-16T03:30:42;99764.47;;;20.96;56.54
13011;BME280;6786;57.632;11.962;2022-10-16T03:33:11;99755.56;;;20.96;56.38
13011;BME280;6786;57.632;11.962;2022-10-16T03:35:40;99716.78;;;20.66;56.68
13011;BME280;6786;57.632;11.962;2022-10-16T03:38:08;99767.78;;;20.90;56.35
13011;BME280;6786;57.632;11.962;2022-10-16T03:40:36;99773.34;;;20.97;56.33
13011;BME280;6786;57.632;11.962;2022-10-16T03:43:05;99770.00;;;20.95;56.65
13011;BME280;6786;57.632;11.962;2022-10-16T03:45:33;99767.16;;;20.96;56.57
13011;BME280;6786;57.632;11.962;2022-10-16T03:48:01;99767.16;;;20.96;56.44
13011;BME280;6786;57.632;11.962;2022-10-16T03:50:30;99760.06;;;20.95;56.44
13011;BME280;6786;57.632;11.962;2022-10-16T03:52:59;99756.72;;;20.93;56.45
13011;BME280;6786;57.632;11.962;2022-10-16T03:55:27;99761.78;;;20.96;56.21
13011;BME280;6786;57.632;11.962;2022-10-16T03:57:55;99759.09;;;20.96;56.30
13011;BME280;6786;57.632;11.962;2022-10-16T04:00:24;99717.44;;;20.68;56.27
13011;BME280;6786;57.632;11.962;2022-10-16T04:02:52;99763.44;;;20.97;56.53
13011;BME280;6786;57.632;11.962;2022-10-16T04:05:20;99767.16;;;20.96;56.51
13011;BME280;6786;57.632;11.962;2022-10-16T04:07:49;99772.34;;;20.98;56.28
13011;BME280;6786;57.632;11.962;2022-10-16T04:10:18;99770.81;;;20.95;56.30
13011;BME280;6786;57.632;11.962;2022-10-16T04:12:46;99767.16;;;20.96;56.37
13011;BME280;6786;57.632;11.962;2022-10-16T04:15:14;99772.69;;;20.95;56.35
13011;BME280;6786;57.632;11.962;2022-10-16T04:17:43;99767.44;;;20.93;56.42
13011;BME280;6786;57.632;11.962;2022-10-16T04:20:11;99762.09;;;20.93;56.45
13011;BME280;6786;57.632;11.962;2022-10-16T04:22:39;99725.84;;;20.65;56.56
13011;BME280;6786;57.632;11.962;2022-10-16T04:25:08;99716.28;;;20.63;56.47
13011;BME280;6786;57.632;11.962;2022-10-16T04:27:39;99760.94;;;20.96;56.54
13011;BME280;6786;57.632;11.962;2022-10-16T04:30:12;99764.47;;;20.96;56.12
13011;BME280;6786;57.632;11.962;2022-10-16T04:32:40;99762.09;;;20.93;56.52
13011;BME280;6786;57.632;11.962;2022-10-16T04:35:09;99772.53;;;20.96;56.28
13011;BME280;6786;57.632;11.962;2022-10-16T04:37:37;99767.97;;;20.97;56.35
13011;BME280;6786;57.632;11.962;2022-10-16T04:40:05;99748.66;;;20.85;56.20
13011;BME280;6786;57.632;11.962;2022-10-16T04:42:34;99736.59;;;20.81;56.47
13011;BME280;6786;57.632;11.962;2022-10-16T04:45:04;99765.09;;;20.98;56.18
13011;BME280;6786;57.632;11.962;2022-10-16T04:47:33;99761.44;;;20.99;56.12
13011;BME280;6786;57.632;11.962;2022-10-16T04:50:01;99759.09;;;20.96;56.28
13011;BME280;6786;57.632;11.962;2022-10-16T04:52:29;99759.91;;;20.97;56.17
13011;BME280;6786;57.632;11.962;2022-10-16T04:54:58;99770.00;;;20.95;56.40
13011;BME280;6786;57.632;11.962;2022-10-16T04:57:29;99734.22;;;20.70;56.27
13011;BME280;6786;57.632;11.962;2022-10-16T04:59:57;99767.97;;;20.97;56.17
13011;BME280;6786;57.632;11.962;2022-10-16T05:02:27;99770.81;;;20.95;56.58
13011;BME280;6786;57.632;11.962;2022-10-16T05:04:55;99766.28;;;20.96;56.20
13011;BME280;6786;57.632;11.962;2022-10-16T05:07:23;99756.41;;;20.96;56.45
13011;BME280;6786;57.632;11.962;2022-10-16T05:09:52;99741.94;;;20.97;56.33
13011;BME280;6786;57.632;11.962;2022-10-16T05:12:20;99753.53;;;20.98;56.17
13011;BME280;6786;57.632;11.962;2022-10-16T05:14:49;99750.69;;;20.99;56.26
13011;BME280;6786;57.632;11.962;2022-10-16T05:17:17;99747.31;;;20.97;56.30
13011;BME280;6786;57.632;11.962;2022-10-16T05:19:46;99753.72;;;20.96;56.32
13011;BME280;6786;57.632;11.962;2022-10-16T05:22:16;99757.72;;;21.00;56.26
13011;BME280;6786;57.632;11.962;2022-10-16T05:24:44;99758.06;;;20.97;56.13
13011;BME280;6786;57.632;11.962;2022-10-16T05:27:12;99757.03;;;20.98;56.16
13011;BME280;6786;57.632;11.962;2022-10-16T05:29:45;99674.56;;;20.44;56.31
13011;BME280;6786;57.632;11.962;2022-10-16T05:32:15;99759.38;;;21.01;56.30
13011;BME280;6786;57.632;11.962;2022-10-16T05:34:43;99756.06;;;20.99;56.25
13011;BME280;6786;57.632;11.962;2022-10-16T05:37:13;99756.41;;;20.96;56.28
13011;BME280;6786;57.632;11.962;2022-10-16T05:39:41;99748.16;;;20.98;56.41
13011;BME280;6786;57.632;11.962;2022-10-16T05:42:09;99741.94;;;20.97;56.25
13011;BME280;6786;57.632;11.962;2022-10-16T05:44:37;99745.31;;;20.99;56.18
13011;BME280;6786;57.632;11.962;2022-10-16T05:47:05;99717.09;;;20.87;56.23
13011;BME280;6786;57.632;11.962;2022-10-16T05:49:33;99692.59;;;20.74;56.25
13011;BME280;6786;57.632;11.962;2022-10-16T05:52:06;99720.09;;;20.92;56.15
13011;BME280;6786;57.632;11.962;2022-10-16T05:54:36;99753.34;;;21.07;56.34
13011;BME280;6786;57.632;11.962;2022-10-16T05:57:04;99749.81;;;21.07;56.36
13011;BME280;6786;57.632;11.962;2022-10-16T05:59:33;99731.84;;;20.91;56.16
13011;BME280;6786;57.632;11.962;2022-10-16T06:02:01;99757.38;;;21.03;56.43
13011;BME280;6786;57.632;11.962;2022-10-16T06:04:29;99758.19;;;21.04;56.43
13011;BME280;6786;57.632;11.962;2022-10-16T06:06:58;99759.06;;;21.04;56.39
13011;BME280;6786;57.632;11.962;2022-10-16T06:09:28;99748.31;;;21.04;56.31
13011;BME280;6786;57.632;11.962;2022-10-16T06:11:57;99756.53;;;21.03;56.16
13011;BME280;6786;57.632;11.962;2022-10-16T06:14:28;99755.69;;;21.02;56.47
13011;BME280;6786;57.632;11.962;2022-10-16T06:16:57;99754.03;;;21.01;56.17
13011;BME280;6786;57.632;11.962;2022-10-16T06:19:25;99746.97;;;21.00;56.25
13011;BME280;6786;57.632;11.962;2022-10-16T06:21:54;99750.31;;;21.02;56.44
13011;BME280;6786;57.632;11.962;2022-10-16T06:24:24;99755.69;;;21.02;56.30
13011;BME280;6786;57.632;11.962;2022-10-16T06:26:52;99750.31;;;21.02;56.25
13011;BME280;6786;57.632;11.962;2022-10-16T06:29:22;99761.06;;;21.02;56.47
13011;BME280;6786;57.632;11.962;2022-10-16T06:31:50;99765.78;;;21.00;56.30
13011;BME280;6786;57.632;11.962;2022-10-16T06:34:19;99752.19;;;21.02;56.46
13011;BME280;6786;57.632;11.962;2022-10-16T06:36:47;99773.84;;;21.00;56.60
13011;BME280;6786;57.632;11.962;2022-10-16T06:39:15;99769.28;;;21.01;56.57
13011;BME280;6786;57.632;11.962;2022-10-16T06:41:43;99764.75;;;21.01;56.48
13011;BME280;6786;57.632;11.962;2022-10-16T06:44:12;99730.38;;;20.81;56.28
13011;BME280;6786;57.632;11.962;2022-10-16T06:46:42;99761.06;;;21.02;56.17
13011;BME280;6786;57.632;11.962;2022-10-16T06:49:10;99768.13;;;21.03;56.21
13011;BME280;6786;57.632;11.962;2022-10-16T06:51:38;99758.19;;;21.04;56.24
13011;BME280;6786;57.632;11.962;2022-10-16T06:54:09;99774.16;;;21.05;56.38
13011;BME280;6786;57.632;11.962;2022-10-16T06:56:40;99757.38;;;21.03;56.28
13011;BME280;6786;57.632;11.962;2022-10-16T06:59:09;99771.47;;;21.05;56.45
13011;BME280;6786;57.632;11.962;2022-10-16T07:01:38;99767.78;;;21.06;56.13
13011;BME280;6786;57.632;11.962;2022-10-16T07:04:08;99768.13;;;21.03;56.32
13011;BME280;6786;57.632;11.962;2022-10-16T07:06:38;99772.47;;;21.04;56.34
13011;BME280;6786;57.632;11.962;2022-10-16T07:09:09;99759.72;;;20.98;56.56
13011;BME280;6786;57.632;11.962;2022-10-16T07:11:39;99770.13;;;21.01;56.46
13011;BME280;6786;57.632;11.962;2022-10-16T07:14:14;99765.63;;;21.02;56.58
13011;BME280;6786;57.632;11.962;2022-10-16T07:16:43;99711.09;;;20.69;56.48
13011;BME280;6786;57.632;11.962;2022-10-16T07:19:16;99761.06;;;21.02;56.29
13011;BME280;6786;57.632;11.962;2022-10-16T07:21:50;99751.03;;;20.96;56.72
13011;BME280;6786;57.632;11.962;2022-10-16T07:24:19;99771.00;;;21.02;56.53
13011;BME280;6786;57.632;11.962;2022-10-16T07:26:47;99767.44;;;21.01;56.71
13011;BME280;6786;57.632;11.962;2022-10-16T07:29:18;99764.75;;;21.01;56.65
13011;BME280;6786;57.632;11.962;2022-10-16T07:31:47;99772.53;;;20.96;56.37
13011;BME280;6786;57.632;11.962;2022-10-16T07:34:19;99764.75;;;21.01;56.51
13011;BME280;6786;57.632;11.962;2022-10-16T07:36:50;99773.84;;;21.00;56.54
13011;BME280;6786;57.632;11.962;2022-10-16T07:39:19;99760.75;;;20.97;56.55
13011;BME280;6786;57.632;11.962;2022-10-16T07:41:47;99759.38;;;21.01;56.61
13011;BME280;6786;57.632;11.962;2022-10-16T07:44:16;99747.47;;;20.88;56.50
13011;BME280;6786;57.632;11.962;2022-10-16T07:46:46;99736.91;;;20.78;56.54
13011;BME280;6786;57.632;11.962;2022-10-16T07:49:15;99766.44;;;21.02;56.74
13011;BME280;6786;57.632;11.962;2022-10-16T07:51:46;99770.13;;;21.01;56.85
13011;BME280;6786;57.632;11.962;2022-10-16T07:54:15;99714.75;;;20.68;56.65
13011;BME280;6786;57.632;11.962;2022-10-16T07:56:45;99770.13;;;21.01;56.67
13011;BME280;6786;57.632;11.962;2022-10-16T07:59:13;99759.38;;;21.01;56.77
13011;BME280;6786;57.632;11.962;2022-10-16T08:01:42;99770.13;;;21.01;56.89
13011;BME280;6786;57.632;11.962;2022-10-16T08:04:10;99766.44;;;21.02;56.79
13011;BME280;6786;57.632;11.962;2022-10-16T08:06:40;99766.44;;;21.02;56.86
13011;BME280;6786;57.632;11.962;2022-10-16T08:09:10;99765.09;;;20.98;57.02
13011;BME280;6786;57.632;11.962;2022-10-16T08:11:38;99712.75;;;20.70;56.94
13011;BME280;6786;57.632;11.962;2022-10-16T08:14:06;99763.09;;;21.00;56.78
13011;BME280;6786;57.632;11.962;2022-10-16T08:16:34;99768.47;;;21.00;56.74
13011;BME280;6786;57.632;11.962;2022-10-16T08:19:02;99770.13;;;21.01;57.05
13011;BME280;6786;57.632;11.962;2022-10-16T08:21:31;99746.78;;;20.94;57.16
13011;BME280;6786;57.632;11.962;2022-10-16T08:23:59;99762.91;;;20.94;56.84
13011;BME280;6786;57.632;11.962;2022-10-16T08:26:29;99780.88;;;21.01;56.84
13011;BME280;6786;57.632;11.962;2022-10-16T08:28:57;99752.69;;;20.81;57.01
13011;BME280;6786;57.632;11.962;2022-10-16T08:31:26;99779.22;;;21.00;57.12
13011;BME280;6786;57.632;11.962;2022-10-16T08:33:54;99777.56;;;20.99;57.08
13011;BME280;6786;57.632;11.962;2022-10-16T08:36:22;99764.75;;;20.93;57.17
13011;BME280;6786;57.632;11.962;2022-10-16T08:39:00;99782.06;;;20.99;56.97
13011;BME280;6786;57.632;11.962;2022-10-16T08:41:59;99779.56;;;20.97;57.29
13011;BME280;6786;57.632;11.962;2022-10-16T08:44:49;99772.53;;;20.96;57.21
13011;BME280;6786;57.632;11.962;2022-10-16T08:47:24;99776.19;;;20.95;57.02
13011;BME280;6786;57.632;11.962;2022-10-16T08:50:02;99766.47;;;20.94;57.01
13011;BME280;6786;57.632;11.962;2022-10-16T08:52:39;99776.19;;;20.95;57.04
13011;BME280;6786;57.632;11.962;2022-10-16T08:55:17;99768.13;;;20.95;57.35
13011;BME280;6786;57.632;11.962;2022-10-16T08:57:55;99747.66;;;20.78;56.91
13011;BME280;6786;57.632;11.962;2022-10-16T09:00:24;99765.44;;;20.95;57.22
13011;BME280;6786;57.632;11.962;2022-10-16T09:03:04;99774.19;;;20.97;57.05
13011;BME280;6786;57.632;11.962;2022-10-16T09:06:02;99740.25;;;20.80;57.35
13011;BME280;6786;57.632;11.962;2022-10-16T09:08:40;99763.44;;;20.97;57.40
13011;BME280;6786;57.632;11.962;2022-10-16T09:11:21;99727.00;;;20.79;57.39
13011;BME280;6786;57.632;11.962;2022-10-16T09:14:02;99766.28;;;20.96;57.68
13011;BME280;6786;57.632;11.962;2022-10-16T09:16:37;99735.56;;;20.74;57.19
13011;BME280;6786;57.632;11.962;2022-10-16T09:19:15;99760.06;;;20.95;57.16
13011;BME280;6786;57.632;11.962;2022-10-16T09:21:48;99741.44;;;20.78;56.98
13011;BME280;6786;57.632;11.962;2022-10-16T09:24:21;99781.56;;;20.95;57.02
13011;BME280;6786;57.632;11.962;2022-10-16T09:26:56;99764.44;;;20.88;57.26
13011;BME280;6786;57.632;11.962;2022-10-16T09:29:29;99785.94;;;20.96;57.17
13011;BME280;6786;57.632;11.962;2022-10-16T09:32:09;99780.19;;;20.91;57.35
13011;BME280;6786;57.632;11.962;2022-10-16T09:34:43;99750.66;;;20.83;57.11
13011;BME280;6786;57.632;11.962;2022-10-16T09:37:15;99779.56;;;20.97;57.27
13011;BME280;6786;57.632;11.962;2022-10-16T09:39:46;99778.88;;;20.95;57.18
13011;BME280;6786;57.632;11.962;2022-10-16T09:42:19;99767.78;;;20.90;57.49
13011;BME280;6786;57.632;11.962;2022-10-16T09:44:51;99783.25;;;20.96;57.18
13011;BME280;6786;57.632;11.962;2022-10-16T09:47:24;99788.63;;;20.96;57.25
13011;BME280;6786;57.632;11.962;2022-10-16T09:49:59;99790.63;;;20.94;57.29
13011;BME280;6786;57.632;11.962;2022-10-16T09:52:33;99746.63;;;20.71;57.35
13011;BME280;6786;57.632;11.962;2022-10-16T09:55:13;99789.63;;;20.95;57.37
13011;BME280;6786;57.632;11.962;2022-10-16T09:57:49;99774.53;;;20.94;57.36
13011;BME280;6786;57.632;11.962;2022-10-16T10:00:22;99778.88;;;20.95;57.19
13011;BME280;6786;57.632;11.962;2022-10-16T10:02:51;99770.81;;;20.95;57.45
13011;BME280;6786;57.632;11.962;2022-10-16T10:05:27;99726.53;;;20.67;57.27
13011;BME280;6786;57.632;11.962;2022-10-16T10:07:58;99769.16;;;20.94;57.36
13011;BME280;6786;57.632;11.962;2022-10-16T10:10:31;99776.19;;;20.95;57.12
13011;BME280;6786;57.632;11.962;2022-10-16T10:13:00;99767.28;;;20.87;57.31
13011;BME280;6786;57.632;11.962;2022-10-16T10:15:41;99780.56;;;20.96;57.47
13011;BME280;6786;57.632;11.962;2022-10-16T10:18:16;99737.25;;;20.75;57.36
13011;BME280;6786;57.632;11.962;2022-10-16T10:20:57;99767.16;;;20.96;57.34
13011;BME280;6786;57.632;11.962;2022-10-16T10:23:29;99725.16;;;20.71;57.21
13011;BME280;6786;57.632;11.962;2022-10-16T10:26:02;99767.16;;;20.96;57.46
13011;BME280;6786;57.632;11.962;2022-10-16T10:28:53;99770.81;;;20.95;57.35
13011;BME280;6786;57.632;11.962;2022-10-16T10:31:45;99780.53;;;20.88;57.43
13011;BME280;6786;57.632;11.962;2022-10-16T10:34:27;99777.88;;;20.96;57.53
13011;BME280;6786;57.632;11.962;2022-10-16T10:37:04;99757.72;;;20.84;57.36
13011;BME280;6786;57.632;11.962;2022-10-16T10:39:43;99715.44;;;20.62;57.26
13011;BME280;6786;57.632;11.962;2022-10-16T10:42:25;99768.13;;;20.95;57.54
13011;BME280;6786;57.632;11.962;2022-10-16T10:45:21;99789.63;;;20.95;57.56
13011;BME280;6786;57.632;11.962;2022-10-16T10:48:05;99780.75;;;20.95;57.45
13011;BME280;6786;57.632;11.962;2022-10-16T10:50:43;99745.63;;;20.80;57.21
13011;BME280;6786;57.632;11.962;2022-10-16T10:53:28;99777.56;;;20.99;57.44
13011;BME280;6786;57.632;11.962;2022-10-16T10:56:09;99767.97;;;20.97;57.50
13011;BME280;6786;57.632;11.962;2022-10-16T10:59:09;99752.66;;;21.05;57.53
13011;BME280;6786;57.632;11.962;2022-10-16T11:01:50;99748.47;;;21.03;57.32
13011;BME280;6786;57.632;11.962;2022-10-16T11:05:19;99759.50;;;21.24;57.32
13011;BME280;6786;57.632;11.962;2022-10-16T11:07:52;99745.13;;;21.48;56.52
13011;BME280;6786;57.632;11.962;2022-10-16T11:10:42;99744.72;;;21.67;56.30
13011;BME280;6786;57.632;11.962;2022-10-16T11:13:24;99738.34;;;21.68;56.08
13011;BME280;6786;57.632;11.962;2022-10-16T11:15:58;99738.63;;;21.73;56.39
13011;BME280;6786;57.632;11.962;2022-10-16T11:18:32;99722.19;;;21.76;56.02
13011;BME280;6786;57.632;11.962;2022-10-16T11:21:11;99742.28;;;21.88;56.25
13011;BME280;6786;57.632;11.962;2022-10-16T11:23:44;99739.56;;;21.96;55.94
13011;BME280;6786;57.632;11.962;2022-10-16T11:26:21;99741.22;;;21.97;56.41
13011;BME280;6786;57.632;11.962;2022-10-16T11:28:51;99714.44;;;21.81;56.40
13011;BME280;6786;57.632;11.962;2022-10-16T11:31:36;99720.13;;;21.86;56.69
13011;BME280;6786;57.632;11.962;2022-10-16T11:34:12;99736.28;;;21.78;56.60
13011;BME280;6786;57.632;11.962;2022-10-16T11:36:49;99727.88;;;21.73;56.61
13011;BME280;6786;57.632;11.962;2022-10-16T11:39:21;99727.59;;;21.68;56.91
13011;BME280;6786;57.632;11.962;2022-10-16T11:41:54;99723.53;;;21.64;56.79
13011;BME280;6786;57.632;11.962;2022-10-16T11:44:38;99716.84;;;21.60;57.08
13011;BME280;6786;57.632;11.962;2022-10-16T11:47:20;99738.72;;;21.57;57.15
13011;BME280;6786;57.632;11.962;2022-10-16T11:50:22;99728.31;;;21.54;56.92
13011;BME280;6786;57.632;11.962;2022-10-16T11:53:01;99713.22;;;21.45;57.20
13011;BME280;6786;57.632;11.962;2022-10-16T11:55:34;99687.75;;;21.32;57.25
13011;BME280;6786;57.632;11.962;2022-10-16T11:58:16;99716.94;;;21.44;57.29
13011;BME280;6786;57.632;11.962;2022-10-16T12:00:54;99817.47;;;21.10;57.01
13011;BME280;6786;57.632;11.962;2022-10-16T12:03:29;99876.22;;;21.46;57.29
13011;BME280;6786;57.632;11.962;2022-10-16T12:06:06;99833.22;;;21.46;56.92
13011;BME280;6786;57.632;11.962;2022-10-16T12:08:43;99790.91;;;21.31;57.00
13011;BME280;6786;57.632;11.962;2022-10-16T12:11:24;99815.38;;;21.45;57.29
13011;BME280;6786;57.632;11.962;2022-10-16T12:16:55;99810.34;;;21.42;57.19
13011;BME280;6786;57.632;11.962;2022-10-16T12:19:26;99810.34;;;21.42;56.86
13011;BME280;6786;57.632;11.962;2022-10-16T12:21:57;99790.91;;;21.31;57.11
13011;BME280;6786;57.632;11.962;2022-10-16T12:24:51;99758.63;;;21.40;57.00
13011;BME280;6786;57.632;11.962;2022-10-16T12:27:31;99781.16;;;21.30;57.14
13011;BME280;6786;57.632;11.962;2022-10-16T12:30:02;99797.94;;;21.41;57.07
13011;BME280;6786;57.632;11.962;2022-10-16T12:32:34;99794.56;;;21.38;56.92
13011;BME280;6786;57.632;11.962;2022-10-16T12:35:21;99790.56;;;21.34;57.09
13011;BME280;6786;57.632;11.962;2022-10-16T12:37:51;99793.59;;;21.31;57.17
13011;BME280;6786;57.632;11.962;2022-10-16T12:40:29;99767.06;;;21.20;56.80
13011;BME280;6786;57.632;11.962;2022-10-16T12:42:59;99764.38;;;21.20;57.07
13011;BME280;6786;57.632;11.962;2022-10-16T12:45:29;99786.19;;;21.33;57.04
13011;BME280;6786;57.632;11.962;2022-10-16T12:48:02;99781.16;;;21.30;57.10
13011;BME280;6786;57.632;11.962;2022-10-16T12:50:33;99787.22;;;21.24;57.02
13011;BME280;6786;57.632;11.962;2022-10-16T12:53:04;99790.56;;;21.26;56.91
13011;BME280;6786;57.632;11.962;2022-10-16T12:55:52;99774.81;;;21.07;56.88
13011;BME280;6786;57.632;11.962;2022-10-16T12:58:35;99820.47;;;21.31;57.09
13011;BME280;6786;57.632;11.962;2022-10-16T13:01:12;99829.53;;;21.30;57.10
13011;BME280;6786;57.632;11.962;2022-10-16T13:06:51;99829.53;;;21.30;56.86
13011;BME280;6786;57.632;11.962;2022-10-16T13:09:36;99855.56;;;21.30;57.01
13011;BME280;6786;57.632;11.962;2022-10-16T13:12:29;99846.00;;;21.27;57.03
13011;BME280;6786;57.632;11.962;2022-10-16T13:15:22;99837.94;;;21.19;56.99
13011;BME280;6786;57.632;11.962;2022-10-16T13:17:58;99852.38;;;21.26;57.00
13011;BME280;6786;57.632;11.962;2022-10-16T13:20:35;99860.44;;;21.26;56.97
13011;BME280;6786;57.632;11.962;2022-10-16T13:23:12;99876.56;;;21.26;57.08
13011;BME280;6786;57.632;11.962;2022-10-16T13:25:54;99831.75;;;21.03;56.90
13011;BME280;6786;57.632;11.962;2022-10-16T13:28:31;99878.59;;;21.24;56.94
13011;BME280;6786;57.632;11.962;2022-10-16T13:31:00;99894.72;;;21.24;56.95
13011;BME280;6786;57.632;11.962;2022-10-16T13:33:32;99888.16;;;21.27;56.96
13011;BME280;6786;57.632;11.962;2022-10-16T13:36:02;99891.03;;;21.25;56.82
13011;BME280;6786;57.632;11.962;2022-10-16T13:38:32;99912.53;;;21.25;56.82